createdAt,value
2018-09-02T00:02:17.540Z,9.68
2018-09-02T00:04:45.233Z,9.46
2018-09-02T00:07:12.944Z,9.43
2018-09-02T00:09:40.630Z,9.67
2018-09-02T00:12:08.325Z,9.92
2018-09-02T00:14:36.027Z,9.41
2018-09-02T00:17:03.704Z,9.38
2018-09-02T00:19:31.369Z,9.60
2018-09-02T00:21:59.090Z,9.72
2018-09-02T00:24:26.805Z,9.70
2018-09-02T00:26:54.493Z,9.75
2018-09-02T00:29:22.197Z,9.16
2018-09-02T00:31:50.015Z,9.13
2018-09-02T00:34:17.739Z,9.41
2018-09-02T00:36:45.471Z,9.70
2018-09-02T00:39:13.169Z,9.42
2018-09-02T00:41:40.887Z,9.22
2018-09-02T00:44:09.020Z,9.00
2018-09-02T00:46:36.708Z,8.87
2018-09-02T00:49:04.812Z,8.83
2018-09-02T00:51:32.543Z,9.12
2018-09-02T00:54:00.268Z,9.01
2018-09-02T00:56:27.994Z,9.26
2018-09-02T00:58:55.685Z,9.32
2018-09-02T01:01:23.396Z,9.02
2018-09-02T01:03:51.069Z,8.94
2018-09-02T01:06:18.732Z,8.71
2018-09-02T01:08:46.429Z,8.83
2018-09-02T01:11:14.164Z,8.76
2018-09-02T01:13:41.873Z,8.81
2018-09-02T01:16:09.681Z,8.49
2018-09-02T01:18:37.370Z,8.36
2018-09-02T01:21:05.089Z,8.30
2018-09-02T01:23:32.798Z,8.28
2018-09-02T01:26:00.501Z,8.59
2018-09-02T01:28:28.191Z,8.90
2018-09-02T01:30:55.879Z,8.48
2018-09-02T01:33:23.577Z,8.86
2018-09-02T01:35:51.267Z,8.62
2018-09-02T01:38:18.952Z,8.31
2018-09-02T01:40:46.641Z,8.81
2018-09-02T01:43:14.318Z,8.99
2018-09-02T01:45:42.025Z,9.12
2018-09-02T01:48:09.709Z,9.12
2018-09-02T01:50:37.412Z,9.03
2018-09-02T01:53:05.256Z,8.71
2018-09-02T01:55:32.940Z,8.37
2018-09-02T01:58:00.638Z,8.72
2018-09-02T02:00:28.337Z,8.63
2018-09-02T02:02:56.060Z,8.54
2018-09-02T02:05:23.756Z,8.76
2018-09-02T02:07:51.505Z,9.01
2018-09-02T02:10:19.199Z,8.73
2018-09-02T02:12:46.881Z,8.28
2018-09-02T02:15:14.560Z,8.38
2018-09-02T02:17:42.237Z,8.13
2018-09-02T02:20:09.977Z,8.03
2018-09-02T02:22:37.677Z,7.98
2018-09-02T02:25:05.398Z,8.08
2018-09-02T02:27:33.101Z,8.49
2018-09-02T02:30:00.886Z,8.70
2018-09-02T02:32:28.597Z,8.41
2018-09-02T02:34:56.291Z,8.22
2018-09-02T02:37:23.989Z,8.45
2018-09-02T02:39:51.681Z,8.09
2018-09-02T02:42:19.409Z,8.02
2018-09-02T02:44:47.114Z,7.89
2018-09-02T02:47:14.836Z,8.11
2018-09-02T02:49:42.581Z,7.89
2018-09-02T02:52:10.330Z,7.81
2018-09-02T02:54:38.000Z,7.93
2018-09-02T02:57:05.697Z,8.07
2018-09-02T02:59:33.373Z,8.13
2018-09-02T03:02:01.076Z,8.33
2018-09-02T03:04:28.803Z,8.57
2018-09-02T03:06:56.507Z,8.13
2018-09-02T03:09:24.168Z,8.07
2018-09-02T03:11:51.959Z,7.85
2018-09-02T03:14:19.667Z,8.10
2018-09-02T03:16:47.369Z,8.35
2018-09-02T03:19:15.070Z,8.45
2018-09-02T03:21:42.763Z,8.42
2018-09-02T03:24:10.472Z,8.48
2018-09-02T03:26:38.162Z,8.01
2018-09-02T03:29:06.018Z,8.21
2018-09-02T03:31:33.702Z,8.23
2018-09-02T03:34:01.417Z,8.13
2018-09-02T03:36:29.162Z,8.17
2018-09-02T03:38:56.848Z,7.99
2018-09-02T03:41:24.592Z,8.04
2018-09-02T03:43:52.434Z,8.40
2018-09-02T03:46:20.130Z,8.45
2018-09-02T03:48:47.918Z,8.36
2018-09-02T03:51:15.607Z,7.97
2018-09-02T03:53:43.282Z,8.03
2018-09-02T03:56:10.946Z,8.12
2018-09-02T03:58:38.636Z,7.79
2018-09-02T04:01:06.483Z,7.75
2018-09-02T04:03:34.197Z,7.78
2018-09-02T04:06:01.916Z,8.07
2018-09-02T04:08:29.589Z,7.83
2018-09-02T04:10:57.263Z,7.61
2018-09-02T04:13:24.964Z,7.80
2018-09-02T04:15:52.643Z,7.80
2018-09-02T04:18:20.402Z,7.78
2018-09-02T04:20:48.085Z,7.86
2018-09-02T04:23:15.754Z,7.96
2018-09-02T04:25:43.434Z,8.21
2018-09-02T04:28:11.138Z,8.31
2018-09-02T04:30:38.837Z,8.52
2018-09-02T04:33:06.557Z,8.37
2018-09-02T04:35:34.244Z,8.39
2018-09-02T04:38:02.033Z,8.59
2018-09-02T04:40:29.725Z,8.15
2018-09-02T04:42:57.391Z,8.27
2018-09-02T04:45:25.220Z,8.46
2018-09-02T04:47:52.915Z,8.37
2018-09-02T04:50:21.143Z,8.50
2018-09-02T04:52:48.852Z,8.60
2018-09-02T04:55:16.547Z,8.41
2018-09-02T04:57:44.911Z,8.28
2018-09-02T05:00:12.624Z,8.27
2018-09-02T05:02:40.325Z,8.22
2018-09-02T05:05:08.031Z,8.27
2018-09-02T05:07:36.054Z,8.26
2018-09-02T05:10:04.105Z,8.24
2018-09-02T05:12:31.792Z,8.23
2018-09-02T05:14:59.556Z,8.34
2018-09-02T05:17:29.054Z,8.37
2018-09-02T05:19:57.293Z,8.43
2018-09-02T05:22:25.082Z,8.55
2018-09-02T05:24:52.777Z,8.61
2018-09-02T05:27:20.620Z,8.82
2018-09-02T05:29:48.944Z,8.66
2018-09-02T05:32:16.684Z,8.58
2018-09-02T05:34:44.377Z,8.60
2018-09-02T05:37:12.275Z,8.63
2018-09-02T05:39:39.957Z,8.61
2018-09-02T05:42:07.645Z,8.64
2018-09-02T05:44:35.343Z,8.70
2018-09-02T05:47:03.045Z,8.73
2018-09-02T05:49:30.757Z,8.73
2018-09-02T05:51:58.445Z,8.71
2018-09-02T05:54:26.133Z,8.76
2018-09-02T05:56:53.834Z,8.84
2018-09-02T05:59:21.568Z,8.86
2018-09-02T06:01:49.266Z,8.86
2018-09-02T06:04:17.037Z,8.98
2018-09-02T06:06:44.720Z,8.97
2018-09-02T06:09:12.426Z,9.04
2018-09-02T06:11:40.158Z,9.12
2018-09-02T06:14:07.946Z,9.18
2018-09-02T06:16:35.629Z,9.20
2018-09-02T06:19:03.344Z,9.31
2018-09-02T06:21:31.180Z,9.32
2018-09-02T06:23:58.884Z,9.41
2018-09-02T06:26:26.569Z,9.45
2018-09-02T06:28:54.621Z,9.49
2018-09-02T06:31:22.440Z,9.55
2018-09-02T06:33:50.126Z,9.63
2018-09-02T06:36:18.191Z,9.68
2018-09-02T06:38:45.930Z,9.74
2018-09-02T06:41:13.666Z,9.82
2018-09-02T06:43:41.388Z,9.91
2018-09-02T06:46:09.099Z,9.56
2018-09-02T06:48:36.878Z,10.01
2018-09-02T06:51:04.605Z,10.10
2018-09-02T06:53:32.392Z,10.19
2018-09-02T06:56:00.149Z,10.30
2018-09-02T06:58:27.945Z,10.41
2018-09-02T07:00:55.660Z,10.49
2018-09-02T07:03:23.463Z,10.45
2018-09-02T07:05:51.169Z,10.40
2018-09-02T07:08:18.868Z,10.61
2018-09-02T07:10:46.589Z,10.69
2018-09-02T07:13:14.288Z,10.70
2018-09-02T07:15:41.978Z,10.87
2018-09-02T07:18:09.708Z,10.90
2018-09-02T07:20:37.407Z,10.89
2018-09-02T07:23:05.404Z,11.02
2018-09-02T07:25:33.364Z,10.90
2018-09-02T07:28:01.090Z,10.83
2018-09-02T07:30:28.809Z,10.84
2018-09-02T07:32:56.521Z,10.86
2018-09-02T07:35:24.228Z,11.06
2018-09-02T07:37:51.944Z,11.08
2018-09-02T07:40:19.692Z,11.14
2018-09-02T07:42:47.485Z,11.26
2018-09-02T07:45:15.540Z,11.36
2018-09-02T07:47:43.380Z,11.45
2018-09-02T07:50:11.090Z,11.31
2018-09-02T07:52:38.816Z,11.74
2018-09-02T07:55:06.953Z,11.82
2018-09-02T07:57:34.642Z,11.82
2018-09-02T08:00:02.385Z,11.55
2018-09-02T08:02:30.072Z,11.74
2018-09-02T08:04:57.765Z,11.57
2018-09-02T08:07:25.484Z,11.59
2018-09-02T08:09:53.185Z,11.53
2018-09-02T08:12:20.935Z,11.56
2018-09-02T08:14:48.692Z,11.64
2018-09-02T08:17:16.375Z,11.62
2018-09-02T08:19:44.228Z,11.68
2018-09-02T08:22:11.903Z,11.81
2018-09-02T08:24:39.634Z,11.89
2018-09-02T08:27:07.346Z,12.04
2018-09-02T08:29:35.057Z,11.97
2018-09-02T08:32:02.787Z,11.90
2018-09-02T08:34:30.459Z,11.88
2018-09-02T08:36:58.193Z,12.10
2018-09-02T08:39:25.878Z,12.05
2018-09-02T08:41:53.538Z,12.64
2018-09-02T08:44:21.320Z,12.53
2018-09-02T08:46:48.997Z,12.56
2018-09-02T08:49:16.698Z,12.28
2018-09-02T08:51:44.390Z,12.31
2018-09-02T08:54:12.071Z,12.54
2018-09-02T08:56:39.826Z,12.47
2018-09-02T08:59:07.500Z,12.25
2018-09-02T09:01:35.241Z,12.60
2018-09-02T09:04:02.863Z,12.47
2018-09-02T09:06:30.609Z,12.62
2018-09-02T09:08:58.618Z,12.85
2018-09-02T09:11:26.145Z,12.81
2018-09-02T09:13:54.317Z,12.35
2018-09-02T09:16:22.111Z,12.79
2018-09-02T09:18:49.830Z,13.15
2018-09-02T09:21:17.530Z,13.50
2018-09-02T09:23:45.248Z,13.09
2018-09-02T09:26:12.934Z,13.05
2018-09-02T09:28:40.610Z,13.52
2018-09-02T09:31:08.838Z,13.40
2018-09-02T09:33:36.563Z,13.28
2018-09-02T09:36:04.310Z,13.80
2018-09-02T09:38:32.117Z,13.78
2018-09-02T09:40:59.814Z,13.26
2018-09-02T09:43:27.509Z,13.11
2018-09-02T09:45:55.231Z,13.12
2018-09-02T09:48:22.934Z,13.24
2018-09-02T09:50:50.611Z,13.16
2018-09-02T09:53:18.334Z,13.09
2018-09-02T09:55:46.035Z,13.44
2018-09-02T09:58:13.730Z,13.25
2018-09-02T10:00:47.065Z,13.26
2018-09-02T10:03:14.803Z,13.34
2018-09-02T10:05:42.500Z,13.45
2018-09-02T10:08:10.559Z,13.49
2018-09-02T10:10:38.233Z,13.42
2018-09-02T10:13:06.009Z,13.42
2018-09-02T10:15:34.173Z,13.56
2018-09-02T10:18:02.000Z,13.43
2018-09-02T10:20:30.044Z,13.54
2018-09-02T10:22:57.850Z,13.74
2018-09-02T10:25:25.536Z,13.70
2018-09-02T10:27:53.330Z,13.69
2018-09-02T10:30:21.150Z,13.63
2018-09-02T10:32:48.951Z,13.70
2018-09-02T10:35:16.849Z,13.73
2018-09-02T10:37:44.707Z,13.71
2018-09-02T10:40:12.434Z,13.73
2018-09-02T10:42:40.113Z,13.75
2018-09-02T10:45:07.966Z,13.81
2018-09-02T10:47:35.731Z,13.85
2018-09-02T10:50:03.516Z,13.92
2018-09-02T10:52:31.349Z,14.08
2018-09-02T10:54:59.045Z,13.99
2018-09-02T10:57:26.857Z,13.99
2018-09-02T10:59:54.793Z,14.04
2018-09-02T11:02:22.521Z,14.13
2018-09-02T11:04:50.256Z,14.18
2018-09-02T11:07:18.085Z,14.23
2018-09-02T11:09:45.780Z,14.18
2018-09-02T11:12:13.529Z,14.26
2018-09-02T11:14:41.360Z,14.35
2018-09-02T11:17:09.065Z,14.29
2018-09-02T11:19:36.791Z,14.31
2018-09-02T11:22:04.613Z,14.37
2018-09-02T11:24:32.292Z,14.37
2018-09-02T11:26:59.997Z,14.44
2018-09-02T11:29:27.869Z,14.44
2018-09-02T11:31:55.553Z,14.48
2018-09-02T11:34:23.526Z,14.53
2018-09-02T11:36:51.377Z,14.58
2018-09-02T11:39:19.090Z,14.61
2018-09-02T11:41:46.781Z,14.63
2018-09-02T11:44:14.489Z,13.43
2018-09-02T11:46:42.227Z,14.67
2018-09-02T11:49:09.969Z,14.69
2018-09-02T11:51:37.690Z,14.97
2018-09-02T11:54:05.581Z,14.87
2018-09-02T11:56:33.304Z,14.96
2018-09-02T11:59:01.066Z,14.90
2018-09-02T12:01:28.873Z,14.87
2018-09-02T12:03:56.575Z,14.91
2018-09-02T12:06:24.293Z,14.96
2018-09-02T12:08:51.993Z,14.97
2018-09-02T12:11:19.662Z,14.95
2018-09-02T12:13:47.334Z,14.99
2018-09-02T12:16:15.014Z,15.07
2018-09-02T12:18:42.690Z,15.04
2018-09-02T12:21:10.346Z,15.05
2018-09-02T12:23:38.009Z,15.08
2018-09-02T12:26:05.710Z,15.16
2018-09-02T12:28:33.373Z,15.11
2018-09-02T12:31:01.046Z,15.10
2018-09-02T12:33:28.702Z,15.14
2018-09-02T12:35:56.590Z,15.14
2018-09-02T12:38:24.270Z,15.24
2018-09-02T12:40:51.940Z,15.16
2018-09-02T12:43:19.665Z,15.13
2018-09-02T12:45:47.446Z,15.18
2018-09-02T12:48:15.199Z,15.18
2018-09-02T12:50:42.886Z,15.17
2018-09-02T12:53:10.682Z,15.22
2018-09-02T12:55:38.456Z,15.20
2018-09-02T12:58:06.190Z,15.19
2018-09-02T13:00:34.507Z,15.23
2018-09-02T13:03:02.751Z,15.27
2018-09-02T13:05:30.482Z,15.80
2018-09-02T13:07:58.157Z,15.81
2018-09-02T13:10:25.836Z,15.64
2018-09-02T13:12:53.582Z,16.40
2018-09-02T13:15:21.393Z,16.19
2018-09-02T13:17:49.043Z,16.02
2018-09-02T13:20:16.734Z,15.96
2018-09-02T13:22:44.545Z,15.86
2018-09-02T13:25:12.269Z,15.91
2018-09-02T13:27:39.966Z,16.01
2018-09-02T13:30:09.035Z,15.99
2018-09-02T13:32:36.891Z,16.43
2018-09-02T13:35:05.151Z,16.38
2018-09-02T13:37:32.864Z,16.08
2018-09-02T13:40:00.614Z,16.58
2018-09-02T13:42:28.425Z,16.49
2018-09-02T13:44:56.139Z,16.54
2018-09-02T13:47:25.235Z,16.67
2018-09-02T13:49:53.178Z,16.99
2018-09-02T13:52:20.961Z,16.64
2018-09-02T13:54:48.751Z,16.60
2018-09-02T13:57:16.412Z,16.44
2018-09-02T13:59:44.395Z,16.60
2018-09-02T14:02:12.052Z,16.81
2018-09-02T14:04:39.802Z,16.70
2018-09-02T14:07:07.593Z,16.74
2018-09-02T14:09:35.277Z,16.69
2018-09-02T14:12:03.009Z,16.68
2018-09-02T14:14:30.716Z,16.72
2018-09-02T14:16:58.424Z,16.93
2018-09-02T14:19:26.146Z,16.85
2018-09-02T14:21:53.869Z,16.66
2018-09-02T14:24:21.564Z,16.66
2018-09-02T14:26:49.285Z,16.94
2018-09-02T14:29:17.053Z,16.78
2018-09-02T14:31:44.721Z,16.92
2018-09-02T14:34:12.477Z,16.90
2018-09-02T14:36:40.160Z,16.80
2018-09-02T14:39:10.245Z,17.01
2018-09-02T14:41:37.929Z,16.98
2018-09-02T14:44:05.671Z,16.92
2018-09-02T14:46:33.396Z,17.09
2018-09-02T14:49:01.143Z,16.95
2018-09-02T14:51:28.885Z,16.99
2018-09-02T14:53:56.599Z,17.15
2018-09-02T14:56:24.332Z,17.25
2018-09-02T14:58:52.087Z,17.17
2018-09-02T15:01:19.916Z,17.07
2018-09-02T15:03:47.601Z,17.27
2018-09-02T15:06:15.372Z,17.42
2018-09-02T15:08:43.109Z,17.40
2018-09-02T15:11:10.805Z,17.29
2018-09-02T15:13:38.585Z,17.26
2018-09-02T15:16:06.447Z,17.22
2018-09-02T15:18:34.209Z,17.25
2018-09-02T15:21:01.909Z,17.24
2018-09-02T15:23:29.620Z,17.50
2018-09-02T15:25:57.366Z,17.24
2018-09-02T15:28:25.072Z,17.52
2018-09-02T15:30:52.777Z,17.41
2018-09-02T15:33:20.480Z,17.43
2018-09-02T15:35:48.378Z,17.31
2018-09-02T15:38:16.075Z,17.18
2018-09-02T15:40:43.775Z,17.50
2018-09-02T15:43:11.472Z,17.50
2018-09-02T15:45:39.198Z,17.37
2018-09-02T15:48:06.895Z,17.52
2018-09-02T15:50:34.782Z,17.51
2018-09-02T15:53:02.466Z,17.53
2018-09-02T15:55:30.198Z,17.40
2018-09-02T15:57:57.907Z,17.36
2018-09-02T16:00:25.618Z,17.57
2018-09-02T16:02:53.412Z,17.40
2018-09-02T16:05:21.406Z,17.44
2018-09-02T16:07:49.109Z,17.42
2018-09-02T16:10:16.807Z,17.64
2018-09-02T16:12:44.652Z,17.57
2018-09-02T16:15:12.413Z,17.51
2018-09-02T16:17:40.105Z,17.65
2018-09-02T16:20:07.835Z,17.75
2018-09-02T16:22:35.545Z,17.56
2018-09-02T16:25:03.369Z,17.58
2018-09-02T16:27:31.092Z,17.58
2018-09-02T16:29:58.792Z,17.59
2018-09-02T16:32:28.314Z,17.60
2018-09-02T16:34:56.125Z,17.61
2018-09-02T16:37:23.956Z,17.64
2018-09-02T16:39:51.776Z,17.58
2018-09-02T16:42:19.474Z,17.50
2018-09-02T16:44:47.192Z,17.45
2018-09-02T16:47:15.029Z,17.44
2018-09-02T16:49:42.778Z,17.53
2018-09-02T16:52:10.466Z,17.49
2018-09-02T16:54:38.230Z,17.42
2018-09-02T16:57:06.103Z,17.37
2018-09-02T16:59:33.799Z,17.35
2018-09-02T17:02:01.608Z,17.34
2018-09-02T17:04:31.446Z,17.32
2018-09-02T17:06:59.118Z,17.36
2018-09-02T17:09:26.951Z,17.30
2018-09-02T17:11:54.796Z,17.26
2018-09-02T17:14:22.450Z,17.24
2018-09-02T17:16:50.228Z,17.21
2018-09-02T17:19:23.465Z,17.16
2018-09-02T17:21:51.366Z,17.15
2018-09-02T17:24:19.088Z,17.13
2018-09-02T17:26:46.790Z,17.09
2018-09-02T17:29:14.616Z,17.07
2018-09-02T17:31:42.330Z,17.06
2018-09-02T17:34:10.045Z,17.04
2018-09-02T17:36:37.806Z,17.00
2018-09-02T17:39:07.716Z,16.98
2018-09-02T17:41:35.567Z,16.96
2018-09-02T17:44:03.369Z,16.94
2018-09-02T17:46:31.102Z,16.88
2018-09-02T17:48:58.784Z,16.89
2018-09-02T17:51:26.566Z,16.86
2018-09-02T17:53:54.251Z,16.83
2018-09-02T17:56:21.954Z,16.80
2018-09-02T17:58:49.688Z,16.76
2018-09-02T18:01:17.565Z,16.77
2018-09-02T18:03:45.394Z,16.72
2018-09-02T18:06:13.096Z,16.73
2018-09-02T18:08:40.821Z,16.72
2018-09-02T18:11:08.749Z,16.69
2018-09-02T18:13:36.621Z,16.68
2018-09-02T18:16:04.474Z,16.66
2018-09-02T18:18:32.232Z,16.54
2018-09-02T18:20:59.998Z,16.52
2018-09-02T18:23:27.711Z,16.57
2018-09-02T18:25:55.557Z,16.57
2018-09-02T18:28:26.189Z,16.56
2018-09-02T18:30:53.938Z,16.43
2018-09-02T18:33:21.632Z,16.47
2018-09-02T18:35:49.334Z,16.44
2018-09-02T18:38:17.033Z,16.42
2018-09-02T18:40:44.765Z,16.36
2018-09-02T18:43:12.479Z,16.25
2018-09-02T18:45:40.197Z,16.14
2018-09-02T18:48:07.916Z,16.09
2018-09-02T18:50:35.645Z,15.94
2018-09-02T18:53:03.389Z,15.99
2018-09-02T18:55:34.722Z,15.98
2018-09-02T18:58:02.431Z,16.02
2018-09-02T19:00:30.102Z,16.06
2018-09-02T19:02:57.864Z,16.02
2018-09-02T19:05:25.557Z,15.74
2018-09-02T19:07:53.287Z,15.76
2018-09-02T19:10:21.039Z,15.69
2018-09-02T19:12:48.751Z,15.58
2018-09-02T19:15:16.459Z,15.65
2018-09-02T19:17:44.170Z,15.59
2018-09-02T19:20:11.890Z,15.43
2018-09-02T19:22:39.585Z,15.56
2018-09-02T19:25:07.416Z,15.65
2018-09-02T19:27:35.146Z,15.44
2018-09-02T19:30:02.918Z,15.53
2018-09-02T19:32:30.602Z,15.57
2018-09-02T19:34:58.359Z,15.40
2018-09-02T19:37:26.059Z,15.51
2018-09-02T19:39:53.750Z,15.34
2018-09-02T19:42:21.465Z,15.30
2018-09-02T19:44:49.178Z,14.96
2018-09-02T19:47:16.883Z,15.21
2018-09-02T19:49:44.568Z,15.03
2018-09-02T19:52:12.231Z,15.09
2018-09-02T19:54:39.901Z,15.37
2018-09-02T19:57:07.593Z,15.12
2018-09-02T19:59:35.294Z,15.10
2018-09-02T20:02:02.993Z,15.04
2018-09-02T20:04:30.688Z,15.06
2018-09-02T20:06:58.392Z,15.04
2018-09-02T20:09:26.050Z,14.78
2018-09-02T20:11:53.716Z,14.96
2018-09-02T20:14:21.412Z,15.01
2018-09-02T20:16:49.102Z,14.98
2018-09-02T20:19:16.762Z,14.83
2018-09-02T20:21:44.516Z,14.75
2018-09-02T20:24:12.248Z,14.81
2018-09-02T20:26:40.012Z,14.71
2018-09-02T20:29:07.729Z,14.81
2018-09-02T20:31:35.408Z,14.93
2018-09-02T20:34:03.122Z,14.78
2018-09-02T20:36:30.805Z,14.78
2018-09-02T20:38:58.504Z,14.68
2018-09-02T20:41:26.220Z,14.77
2018-09-02T20:43:53.905Z,14.78
2018-09-02T20:46:21.669Z,14.79
2018-09-02T20:48:49.354Z,14.59
2018-09-02T20:51:17.460Z,14.51
2018-09-02T20:53:45.090Z,14.47
2018-09-02T20:56:12.818Z,14.25
2018-09-02T20:58:40.504Z,14.36
2018-09-02T21:01:08.182Z,14.32
2018-09-02T21:03:35.942Z,13.51
2018-09-02T21:06:04.648Z,14.32
2018-09-02T21:08:32.464Z,14.07
2018-09-02T21:11:00.158Z,14.32
2018-09-02T21:13:27.853Z,14.32
2018-09-02T21:15:55.514Z,14.21
2018-09-02T21:18:23.197Z,14.28
2018-09-02T21:20:50.864Z,14.26
2018-09-02T21:23:18.549Z,14.24
2018-09-02T21:25:46.241Z,14.19
2018-09-02T21:28:13.933Z,13.81
2018-09-02T21:30:41.613Z,13.75
2018-09-02T21:33:09.370Z,13.92
2018-09-02T21:35:37.038Z,13.99
2018-09-02T21:38:04.747Z,13.97
2018-09-02T21:40:32.446Z,13.73
2018-09-02T21:43:00.117Z,13.74
2018-09-02T21:45:27.802Z,13.56
2018-09-02T21:47:55.565Z,13.46
2018-09-02T21:50:23.339Z,13.41
2018-09-02T21:52:51.095Z,13.28
2018-09-02T21:55:18.796Z,13.33
2018-09-02T21:57:46.446Z,13.42
2018-09-02T22:00:15.821Z,13.51
2018-09-02T22:02:43.487Z,13.55
2018-09-02T22:05:12.494Z,13.63
2018-09-02T22:07:40.900Z,13.65
2018-09-02T22:10:08.718Z,13.63
2018-09-02T22:12:36.384Z,13.56
2018-09-02T22:15:04.395Z,13.30
2018-09-02T22:17:32.075Z,13.41
2018-09-02T22:19:59.746Z,13.46
2018-09-02T22:22:27.410Z,13.42
2018-09-02T22:24:55.100Z,13.46
2018-09-02T22:27:22.808Z,13.31
2018-09-02T22:29:50.477Z,13.37
2018-09-02T22:32:18.153Z,13.43
2018-09-02T22:34:45.832Z,13.35
2018-09-02T22:37:13.521Z,13.28
2018-09-02T22:39:41.179Z,12.83
2018-09-02T22:42:08.894Z,13.18
2018-09-02T22:44:36.562Z,13.17
2018-09-02T22:47:04.272Z,13.28
2018-09-02T22:49:31.956Z,13.38
2018-09-02T22:51:59.649Z,13.44
2018-09-02T22:54:27.333Z,13.24
2018-09-02T22:56:55.026Z,13.28
2018-09-02T22:59:22.722Z,13.23
2018-09-02T23:01:50.426Z,13.20
2018-09-02T23:04:18.121Z,13.13
2018-09-02T23:06:45.795Z,13.10
2018-09-02T23:09:13.494Z,13.14
2018-09-02T23:11:41.164Z,12.90
2018-09-02T23:14:08.836Z,12.64
2018-09-02T23:16:36.603Z,12.85
2018-09-02T23:19:04.333Z,12.50
2018-09-02T23:21:32.022Z,12.54
2018-09-02T23:23:59.808Z,12.52
2018-09-02T23:26:27.513Z,12.44
2018-09-02T23:28:55.293Z,12.46
2018-09-02T23:31:23.030Z,12.76
2018-09-02T23:33:50.913Z,12.63
2018-09-02T23:36:18.612Z,12.68
2018-09-02T23:38:46.290Z,12.50
2018-09-02T23:41:13.989Z,12.68
2018-09-02T23:43:41.700Z,12.25
2018-09-02T23:46:09.393Z,12.06
2018-09-02T23:48:37.089Z,12.20
2018-09-02T23:51:04.957Z,12.11
2018-09-02T23:53:32.651Z,12.26
2018-09-02T23:56:00.345Z,12.25
2018-09-02T23:58:28.060Z,12.15
